Toronto, Canada
Current Conditions -  °F | °C
As of 3:16 PM on Monday 24 Nov 2014 (Local Time) from CYYZ Reporting Station
Broken Clouds Broken Clouds  
Wind Chill: 15°   Ceiling: 4000
Heat Index: 15°   Visibility: 15mi
Dew Point:   Wind: 25mph
Humidity: 67%   Direction: 230°SW
Pressure: 29.2"   Gusts: 46mph
Location:  43.65°N, 79.39°W
Report Text: CYYZ 242016Z 23022G40KT 15SM SCT030 BKN040 BKN100 15/09 A2920 RMK CF3SC2AC2 SLP888 DENSITY ALT 1500FT
Loading
Personal Weather Stations






























Interactive Weather Map New forecast layout! Learn more

10-Day Weather Forecast

Advertisements
Track Severe Weather on mobile